Alpine, Texas
Current Conditions -  °F | °C
As of 7:35 AM on Saturday 25 Oct 2014 (Local Time) from KE38 Reporting Station
Clear Clear  
Wind Chill: 56°   Ceiling: Unl
Heat Index: 56°   Visibility: 10mi
Dew Point: 50°   Wind: 7mph
Humidity: 82%   Direction: 220°SW
Pressure: 30.31"   Gusts: NA
Location:  30.36°N, 103.66°W
Report Text: KE38 251235Z AUTO 22006KT 10SM CLR 13/10 A3031 RMK AO2 T01320102
Loading
Personal Weather Stations






























Interactive Weather Map
Tropical Storm Tracking
New forecast layout! Learn more

10-Day Weather Forecast

Advertisements
Track Severe Weather on mobile